createdAt,value
2023-03-28T00:01:03.945Z,97576.69
2023-03-28T00:03:35.958Z,97572.44
2023-03-28T00:06:09.742Z,97575.88
2023-03-28T00:08:40.878Z,97564.66
2023-03-28T00:11:11.641Z,97525.84
2023-03-28T00:13:41.276Z,97544.81
2023-03-28T00:16:13.233Z,97539.63
2023-03-28T00:18:42.906Z,97566.38
2023-03-28T00:21:23.638Z,97463.72
2023-03-28T00:23:53.664Z,97562.09
2023-03-28T00:26:25.050Z,97579.34
2023-03-28T00:28:55.362Z,97584.50
2023-03-28T00:31:25.586Z,97576.75
2023-03-28T00:33:54.275Z,97515.47
2023-03-28T00:36:26.796Z,97607.81
2023-03-28T00:38:55.291Z,97590.56
2023-03-28T00:41:25.199Z,97573.31
2023-03-28T00:43:56.537Z,97587.09
2023-03-28T00:46:29.910Z,97563.78
2023-03-28T00:49:03.862Z,97578.50
2023-03-28T00:51:36.718Z,97547.41
2023-03-28T00:54:09.691Z,97598.34
2023-03-28T00:56:39.434Z,97599.19
2023-03-28T00:59:13.537Z,97581.94
2023-03-28T01:01:41.660Z,97587.13
2023-03-28T01:04:10.351Z,97602.66
2023-03-28T01:06:42.356Z,97597.47
2023-03-28T01:09:11.173Z,97597.47
2023-03-28T01:11:41.896Z,97572.44
2023-03-28T01:14:14.120Z,97598.34
2023-03-28T01:16:43.151Z,97613.00
2023-03-28T01:19:26.836Z,97619.03
2023-03-28T01:22:16.752Z,97626.81
2023-03-28T01:25:24.582Z,97636.28
2023-03-28T01:28:02.383Z,97637.16
2023-03-28T01:30:57.205Z,97636.31
2023-03-28T01:34:11.288Z,97647.50
2023-03-28T01:37:15.980Z,97578.38
2023-03-28T01:39:58.588Z,97647.47
2023-03-28T01:42:33.421Z,97662.16
2023-03-28T01:45:15.108Z,97650.94
2023-03-28T01:47:50.305Z,97651.81
2023-03-28T01:50:22.012Z,97650.94
2023-03-28T01:53:04.644Z,97653.56
2023-03-28T01:55:41.484Z,97649.22
2023-03-28T01:58:17.064Z,97546.47
2023-03-28T02:00:49.976Z,97644.03
2023-03-28T02:03:25.250Z,97644.06
2023-03-28T02:05:56.815Z,97642.34
2023-03-28T02:08:32.038Z,97644.94
2023-03-28T02:11:00.410Z,97636.28
2023-03-28T02:13:37.239Z,97647.50
2023-03-28T02:16:08.635Z,97644.88
2023-03-28T02:18:41.773Z,97649.16
2023-03-28T02:21:14.724Z,97622.38
2023-03-28T02:23:48.587Z,97646.53
2023-03-28T02:26:17.427Z,97609.38
2023-03-28T02:28:48.848Z,97663.75
2023-03-28T02:31:17.033Z,97669.78
2023-03-28T02:33:47.532Z,97675.78
2023-03-28T02:36:29.770Z,97682.69
2023-03-28T02:39:15.517Z,97682.69
2023-03-28T02:41:59.177Z,97686.16
2023-03-28T02:44:45.984Z,97673.13
2023-03-28T02:47:20.170Z,97673.94
2023-03-28T02:50:02.258Z,97662.66
2023-03-28T02:52:40.390Z,97711.84
2023-03-28T02:55:19.682Z,97685.03
2023-03-28T02:57:53.755Z,97663.31
2023-03-28T03:00:22.080Z,97703.97
2023-03-28T03:02:52.797Z,97694.41
2023-03-28T03:05:21.474Z,97722.91
2023-03-28T03:07:50.769Z,97648.44
2023-03-28T03:10:22.169Z,97721.09
2023-03-28T03:12:50.612Z,97696.00
2023-03-28T03:15:18.940Z,97722.78
2023-03-28T03:17:47.601Z,97721.91
2023-03-28T03:20:15.768Z,97747.75
2023-03-28T03:22:43.991Z,97722.97
2023-03-28T03:25:14.640Z,97728.13
2023-03-28T03:27:44.466Z,97705.59
2023-03-28T03:30:13.795Z,97735.84
2023-03-28T03:32:44.247Z,97742.72
2023-03-28T03:35:12.999Z,97736.66
2023-03-28T03:37:41.633Z,97739.28
2023-03-28T03:40:11.156Z,97742.63
2023-03-28T03:42:39.322Z,97746.91
2023-03-28T03:45:10.738Z,97699.38
2023-03-28T03:47:38.956Z,97748.66
2023-03-28T03:50:08.365Z,97753.78
2023-03-28T03:52:36.636Z,97656.81
2023-03-28T03:55:05.710Z,97734.84
2023-03-28T03:57:33.942Z,97767.59
2023-03-28T04:00:06.038Z,97771.91
2023-03-28T04:02:35.664Z,97770.94
2023-03-28T04:05:03.995Z,97771.00
2023-03-28T04:07:33.057Z,97777.03
2023-03-28T04:10:01.250Z,97702.50
2023-03-28T04:12:29.389Z,97782.78
2023-03-28T04:14:57.909Z,97798.25
2023-03-28T04:17:30.022Z,97784.50
2023-03-28T04:19:59.818Z,97789.66
2023-03-28T04:22:29.890Z,97782.81
2023-03-28T04:24:58.313Z,97792.41
2023-03-28T04:27:29.766Z,97804.41
2023-03-28T04:29:58.006Z,97767.28
2023-03-28T04:32:26.275Z,97802.69
2023-03-28T04:34:54.445Z,97810.41
2023-03-28T04:37:24.064Z,97797.47
2023-03-28T04:39:54.162Z,97804.34
2023-03-28T04:42:22.555Z,97778.00
2023-03-28T04:44:50.819Z,97825.59
2023-03-28T04:47:19.184Z,97829.06
2023-03-28T04:49:48.875Z,97691.38
2023-03-28T04:52:17.146Z,97832.50
2023-03-28T04:54:46.702Z,97835.97
2023-03-28T04:57:14.859Z,97832.56
2023-03-28T04:59:43.090Z,97817.03
2023-03-28T05:02:14.144Z,97852.56
2023-03-28T05:04:42.513Z,97849.25
2023-03-28T05:07:10.776Z,97828.38
2023-03-28T05:09:39.119Z,97841.44
2023-03-28T05:12:09.037Z,97850.97
2023-03-28T05:14:37.224Z,97845.00
2023-03-28T05:17:05.373Z,97849.38
2023-03-28T05:19:33.664Z,97853.88
2023-03-28T05:22:01.955Z,97831.53
2023-03-28T05:24:30.195Z,97851.53
2023-03-28T05:26:58.524Z,97848.13
2023-03-28T05:29:28.081Z,97794.50
2023-03-28T05:31:56.432Z,97856.00
2023-03-28T05:34:25.221Z,97851.81
2023-03-28T05:36:53.389Z,97855.31
2023-03-28T05:39:21.891Z,97834.44
2023-03-28T05:41:50.036Z,97841.34
2023-03-28T05:44:18.896Z,97856.13
2023-03-28T05:46:48.546Z,97834.59
2023-03-28T05:49:16.869Z,97854.63
2023-03-28T05:51:45.639Z,97860.78
2023-03-28T05:54:13.797Z,97865.16
2023-03-28T05:56:42.110Z,97836.66
2023-03-28T05:59:10.416Z,97867.84
2023-03-28T06:01:40.741Z,97864.41
2023-03-28T06:04:11.581Z,97862.69
2023-03-28T06:06:41.396Z,97735.63
2023-03-28T06:09:10.958Z,97869.66
2023-03-28T06:11:39.296Z,97835.91
2023-03-28T06:14:07.473Z,97873.94
2023-03-28T06:16:35.771Z,97873.06
2023-03-28T06:19:16.585Z,97873.91
2023-03-28T06:21:47.650Z,97873.03
2023-03-28T06:24:15.993Z,97878.25
2023-03-28T06:26:44.715Z,97879.03
2023-03-28T06:29:13.061Z,97782.19
2023-03-28T06:31:41.277Z,97872.84
2023-03-28T06:34:09.487Z,97863.38
2023-03-28T06:36:37.665Z,97805.53
2023-03-28T06:39:07.208Z,97821.19
2023-03-28T06:41:35.476Z,97872.22
2023-03-28T06:44:03.806Z,97866.19
2023-03-28T06:46:32.140Z,97882.59
2023-03-28T06:49:00.970Z,97884.28
2023-03-28T06:51:29.171Z,97897.22
2023-03-28T06:53:57.380Z,97889.38
2023-03-28T06:56:27.147Z,97895.44
2023-03-28T06:58:55.221Z,97898.03
2023-03-28T07:01:23.389Z,97878.16
2023-03-28T07:03:52.568Z,97896.34
2023-03-28T07:06:21.002Z,97887.59
2023-03-28T07:08:49.148Z,97900.50
2023-03-28T07:11:17.258Z,97892.66
2023-03-28T07:13:46.948Z,97898.78
2023-03-28T07:16:16.592Z,97891.75
2023-03-28T07:18:45.210Z,97875.31
2023-03-28T07:21:16.177Z,97883.97
2023-03-28T07:23:44.870Z,97899.56
2023-03-28T07:26:14.472Z,97896.97
2023-03-28T07:28:43.319Z,97897.84
2023-03-28T07:31:13.244Z,97891.66
2023-03-28T07:33:41.535Z,97882.19
2023-03-28T07:36:12.317Z,97903.00
2023-03-28T07:38:40.476Z,97924.72
2023-03-28T07:41:09.441Z,97887.56
2023-03-28T07:43:38.862Z,97911.66
2023-03-28T07:46:09.477Z,97889.13
2023-03-28T07:48:41.125Z,97913.16
2023-03-28T07:51:10.937Z,97924.38
2023-03-28T07:53:39.645Z,97924.34
2023-03-28T07:56:12.056Z,97863.00
2023-03-28T07:58:41.046Z,97927.13
2023-03-28T08:01:11.097Z,97901.19
2023-03-28T08:03:41.223Z,97910.63
2023-03-28T08:06:24.228Z,97915.19
2023-03-28T08:08:57.301Z,97921.22
2023-03-28T08:11:25.426Z,97922.19
2023-03-28T08:13:53.749Z,97921.22
2023-03-28T08:16:21.913Z,97922.06
2023-03-28T08:19:03.570Z,97915.13
2023-03-28T08:21:38.745Z,97936.63
2023-03-28T08:24:08.084Z,97751.78
2023-03-28T08:26:36.942Z,97928.91
2023-03-28T08:29:06.372Z,97919.47
2023-03-28T08:31:34.661Z,97914.31
2023-03-28T08:34:04.229Z,97929.75
2023-03-28T08:36:32.543Z,97951.34
2023-03-28T08:39:01.539Z,97954.03
2023-03-28T08:41:48.460Z,97942.84
2023-03-28T08:44:37.381Z,97952.34
2023-03-28T08:47:11.740Z,97951.44
2023-03-28T08:49:47.240Z,97906.53
2023-03-28T08:52:18.630Z,97959.38
2023-03-28T08:54:51.442Z,97961.91
2023-03-28T08:57:22.726Z,97969.69
2023-03-28T08:59:56.831Z,97955.84
2023-03-28T09:02:28.179Z,97954.06
2023-03-28T09:05:12.108Z,97973.94
2023-03-28T09:07:56.201Z,97982.59
2023-03-28T09:10:33.710Z,97970.38
2023-03-28T09:13:21.688Z,97961.75
2023-03-28T09:16:07.146Z,97947.78
2023-03-28T09:18:52.161Z,97957.25
2023-03-28T09:21:29.388Z,97972.06
2023-03-28T09:24:17.891Z,97948.66
2023-03-28T09:26:49.506Z,97982.41
2023-03-28T09:29:19.404Z,97964.94
2023-03-28T09:31:50.234Z,98027.41
2023-03-28T09:34:23.190Z,97966.56
2023-03-28T09:36:55.539Z,98000.25
2023-03-28T09:39:34.098Z,97971.72
2023-03-28T09:42:08.017Z,98007.84
2023-03-28T09:44:53.566Z,97952.13
2023-03-28T09:47:23.169Z,98027.38
2023-03-28T09:49:59.449Z,98022.13
2023-03-28T09:52:35.417Z,98001.28
2023-03-28T09:55:04.138Z,98014.13
2023-03-28T09:57:59.825Z,97968.38
2023-03-28T10:00:28.338Z,98039.50
2023-03-28T10:02:57.331Z,98039.41
2023-03-28T10:05:34.363Z,97996.81
2023-03-28T10:08:20.849Z,98031.41
2023-03-28T10:10:56.409Z,98071.41
2023-03-28T10:13:24.827Z,98042.13
2023-03-28T10:15:53.778Z,98034.38
2023-03-28T10:18:23.472Z,98044.69
2023-03-28T10:20:52.273Z,98051.44
2023-03-28T10:23:23.618Z,98023.44
2023-03-28T10:25:54.065Z,98040.94
2023-03-28T10:28:30.232Z,98050.63
2023-03-28T10:31:01.578Z,98057.63
2023-03-28T10:33:35.141Z,98072.25
2023-03-28T10:36:06.481Z,98052.19
2023-03-28T10:38:46.597Z,98047.91
2023-03-28T10:41:23.799Z,97840.28
2023-03-28T10:43:53.750Z,98041.84
2023-03-28T10:46:24.414Z,98012.22
2023-03-28T10:48:57.768Z,98025.81
2023-03-28T10:51:27.834Z,98012.72
2023-03-28T10:54:07.616Z,98026.44
2023-03-28T10:56:39.338Z,98033.22
2023-03-28T10:59:19.113Z,98062.75
2023-03-28T11:01:58.809Z,98050.53
2023-03-28T11:04:41.500Z,98073.88
2023-03-28T11:07:17.225Z,98014.97
2023-03-28T11:09:56.232Z,98057.88
2023-03-28T11:12:51.323Z,98071.56
2023-03-28T11:15:29.792Z,98075.13
2023-03-28T11:18:08.737Z,98045.53
2023-03-28T11:20:46.135Z,98074.38
2023-03-28T11:23:38.754Z,98011.16
2023-03-28T11:26:12.648Z,98081.00
2023-03-28T11:28:53.833Z,98122.78
2023-03-28T11:31:27.937Z,98085.63
2023-03-28T11:34:02.518Z,98063.94
2023-03-28T11:36:35.202Z,98073.38
2023-03-28T11:39:11.811Z,98064.63
2023-03-28T11:41:44.480Z,98087.84
2023-03-28T11:44:19.147Z,98022.22
2023-03-28T11:46:52.444Z,98072.53
2023-03-28T11:49:28.622Z,98085.63
2023-03-28T11:52:02.847Z,98046.59
2023-03-28T11:54:36.805Z,98071.69
2023-03-28T11:57:16.146Z,98073.47
2023-03-28T11:59:50.712Z,98074.25
2023-03-28T12:02:40.274Z,98066.13
2023-03-28T12:05:19.221Z,98065.22
2023-03-28T12:07:54.400Z,98018.44
2023-03-28T12:10:27.394Z,98059.97
2023-03-28T12:13:04.879Z,98051.38
2023-03-28T12:15:40.491Z,98066.19
2023-03-28T12:18:14.872Z,97985.53
2023-03-28T12:20:51.308Z,98080.25
2023-03-28T12:23:25.792Z,98051.16
2023-03-28T12:26:04.556Z,98053.44
2023-03-28T12:28:41.650Z,97942.09
2023-03-28T12:31:16.390Z,98068.75
2023-03-28T12:33:53.708Z,98068.91
2023-03-28T12:36:28.625Z,98046.13
2023-03-28T12:39:02.113Z,98069.34
2023-03-28T12:41:33.125Z,98054.91
2023-03-28T12:44:08.181Z,98072.50
2023-03-28T12:46:46.005Z,98047.97
2023-03-28T12:49:18.113Z,98040.59
2023-03-28T12:51:49.595Z,98059.34
2023-03-28T12:54:27.716Z,98081.41
2023-03-28T12:57:05.285Z,98080.00
2023-03-28T12:59:52.413Z,98069.06
2023-03-28T13:02:30.723Z,98050.41
2023-03-28T13:05:06.307Z,98070.84
2023-03-28T13:07:55.494Z,98084.78
2023-03-28T13:10:31.417Z,98063.25
2023-03-28T13:13:12.958Z,98061.13
2023-03-28T13:16:05.238Z,98070.53
2023-03-28T13:18:35.161Z,98101.50
2023-03-28T13:21:07.340Z,98071.09
2023-03-28T13:23:38.812Z,98101.41
2023-03-28T13:26:08.346Z,98066.06
2023-03-28T13:28:44.529Z,97980.44
2023-03-28T13:31:21.942Z,98062.28
2023-03-28T13:33:54.628Z,98062.72
2023-03-28T13:36:28.520Z,98074.53
2023-03-28T13:39:25.215Z,98057.41
2023-03-28T13:42:01.916Z,98063.69
2023-03-28T13:44:39.666Z,98042.91
2023-03-28T13:47:17.042Z,98034.50
2023-03-28T13:49:50.084Z,98037.72
2023-03-28T13:52:21.600Z,98041.19
2023-03-28T13:54:54.403Z,98073.72
2023-03-28T13:57:26.145Z,98012.66
2023-03-28T13:59:56.646Z,98066.63
2023-03-28T14:02:37.581Z,98083.09
2023-03-28T14:05:14.802Z,98041.31
2023-03-28T14:07:43.068Z,98064.41
2023-03-28T14:10:22.344Z,98101.31
2023-03-28T14:12:53.411Z,98057.81
2023-03-28T14:15:24.903Z,98071.75
2023-03-28T14:17:57.833Z,98061.81
2023-03-28T14:20:27.654Z,98067.78
2023-03-28T14:23:00.560Z,98077.13
2023-03-28T14:25:32.557Z,98081.25
2023-03-28T14:28:09.772Z,98076.47
2023-03-28T14:30:43.111Z,98058.41
2023-03-28T14:33:21.862Z,98084.06
2023-03-28T14:36:01.855Z,98058.94
2023-03-28T14:38:35.309Z,98090.47
2023-03-28T14:41:19.384Z,98020.13
2023-03-28T14:43:52.288Z,98074.09
2023-03-28T14:46:23.698Z,98070.75
2023-03-28T14:48:54.808Z,98070.22
2023-03-28T14:51:23.522Z,98057.34
2023-03-28T14:53:53.114Z,98035.78
2023-03-28T14:56:26.351Z,98056.53
2023-03-28T14:58:58.941Z,98072.03
2023-03-28T15:01:28.748Z,98053.22
2023-03-28T15:04:02.697Z,98066.88
2023-03-28T15:06:31.300Z,98084.03
2023-03-28T15:09:00.864Z,98055.09
2023-03-28T15:11:32.795Z,98082.50
2023-03-28T15:14:04.743Z,97903.56
2023-03-28T15:16:37.414Z,98095.66
2023-03-28T15:19:10.622Z,98100.63
2023-03-28T15:21:41.747Z,98041.31
2023-03-28T15:24:13.778Z,98110.44
2023-03-28T15:26:45.107Z,98054.81
2023-03-28T15:29:19.210Z,98106.59
2023-03-28T15:31:47.914Z,98089.25
2023-03-28T15:34:23.359Z,98104.31
2023-03-28T15:36:54.329Z,97982.44
2023-03-28T15:39:25.613Z,98115.84
2023-03-28T15:41:56.240Z,98104.78
2023-03-28T15:44:28.750Z,98096.97
2023-03-28T15:46:59.791Z,98111.97
2023-03-28T15:49:30.006Z,98119.44
2023-03-28T15:52:02.716Z,98135.00
2023-03-28T15:54:32.649Z,98023.34
2023-03-28T15:57:03.516Z,98105.06
2023-03-28T15:59:35.811Z,98125.66
2023-03-28T16:02:32.575Z,98128.47
2023-03-28T16:05:04.834Z,98141.56
2023-03-28T16:07:38.629Z,98130.69
2023-03-28T16:10:07.705Z,98156.84
2023-03-28T16:12:36.014Z,98159.53
2023-03-28T16:15:05.150Z,98057.03
2023-03-28T16:17:33.882Z,98179.22
2023-03-28T16:20:04.884Z,98178.97
2023-03-28T16:22:33.129Z,98188.66
2023-03-28T16:25:01.360Z,98166.78
2023-03-28T16:27:29.456Z,98194.91
2023-03-28T16:29:57.987Z,98161.47
2023-03-28T16:32:26.235Z,98166.75
2023-03-28T16:34:54.408Z,98166.03
2023-03-28T16:37:24.072Z,98188.69
2023-03-28T16:39:52.771Z,98200.78
2023-03-28T16:42:21.759Z,98195.66
2023-03-28T16:44:49.941Z,98200.88
2023-03-28T16:47:18.090Z,98180.97
2023-03-28T16:49:46.261Z,98194.03
2023-03-28T16:52:14.474Z,98197.47
2023-03-28T16:54:44.313Z,98216.69
2023-03-28T16:57:12.511Z,98197.63
2023-03-28T16:59:40.731Z,98217.66
2023-03-28T17:02:10.585Z,98217.63
2023-03-28T17:04:38.836Z,98218.50
2023-03-28T17:07:06.980Z,98223.78
2023-03-28T17:09:35.312Z,98217.69
2023-03-28T17:12:05.012Z,98180.44
2023-03-28T17:14:33.186Z,98222.91
2023-03-28T17:17:01.568Z,98210.78
2023-03-28T17:19:30.213Z,98215.13
2023-03-28T17:21:58.863Z,98220.34
2023-03-28T17:24:27.206Z,98181.38
2023-03-28T17:26:55.364Z,98186.56
2023-03-28T17:29:25.363Z,98218.63
2023-03-28T17:31:54.466Z,98224.72
2023-03-28T17:34:23.347Z,98230.78
2023-03-28T17:36:53.540Z,98227.28
2023-03-28T17:39:23.155Z,98209.94
2023-03-28T17:41:51.509Z,98235.13
2023-03-28T17:44:19.661Z,98244.66
2023-03-28T17:46:49.358Z,98235.97
2023-03-28T17:49:18.423Z,98249.84
2023-03-28T17:51:46.853Z,98204.75
2023-03-28T17:54:15.047Z,98248.97
2023-03-28T17:56:43.369Z,98209.94
2023-03-28T17:59:11.773Z,98256.75
2023-03-28T18:01:40.215Z,98257.59
2023-03-28T18:04:09.884Z,98235.91
2023-03-28T18:06:38.406Z,98251.53
2023-03-28T18:09:06.615Z,98253.28
2023-03-28T18:11:35.872Z,98261.09
2023-03-28T18:14:04.371Z,98279.28
2023-03-28T18:16:32.587Z,98266.28
2023-03-28T18:19:01.290Z,98272.34
2023-03-28T18:21:31.040Z,98279.25
2023-03-28T18:23:59.213Z,98267.13
2023-03-28T18:26:28.976Z,98268.88
2023-03-28T18:28:57.763Z,98268.00
2023-03-28T18:31:28.476Z,98273.19
2023-03-28T18:33:57.862Z,98272.34
2023-03-28T18:36:26.744Z,98275.78
2023-03-28T18:38:56.837Z,98267.13
2023-03-28T18:41:26.532Z,98273.19
2023-03-28T18:43:54.727Z,98276.66
2023-03-28T18:46:25.381Z,98284.47
2023-03-28T18:48:54.798Z,98260.16
2023-03-28T18:51:23.040Z,98281.81
2023-03-28T18:53:51.265Z,98272.25
2023-03-28T18:56:22.051Z,98300.88
2023-03-28T18:58:51.769Z,98296.53
2023-03-28T19:01:20.720Z,98279.16
2023-03-28T19:03:49.981Z,98283.53
2023-03-28T19:06:18.284Z,98260.03
2023-03-28T19:08:47.704Z,98290.41
2023-03-28T19:11:19.124Z,98304.31
2023-03-28T19:13:48.866Z,98306.03
2023-03-28T19:16:19.728Z,98278.22
2023-03-28T19:18:48.502Z,98268.66
2023-03-28T19:21:17.884Z,98305.13
2023-03-28T19:23:46.221Z,98303.41
2023-03-28T19:26:15.088Z,98298.16
2023-03-28T19:28:43.525Z,98300.75
2023-03-28T19:31:15.126Z,98309.44
2023-03-28T19:33:43.745Z,98286.88
2023-03-28T19:36:12.595Z,98298.22
2023-03-28T19:38:41.394Z,98277.34
2023-03-28T19:41:17.062Z,98272.16
2023-03-28T19:43:45.474Z,98292.09
2023-03-28T19:46:19.041Z,98270.41
2023-03-28T19:48:47.321Z,98291.25
2023-03-28T19:51:16.070Z,98276.44
2023-03-28T19:53:44.390Z,98290.34
2023-03-28T19:56:14.116Z,98291.13
2023-03-28T19:58:42.444Z,98288.44
2023-03-28T20:01:10.618Z,98298.78
2023-03-28T20:03:40.859Z,98200.69
2023-03-28T20:06:12.237Z,98297.94
2023-03-28T20:08:41.615Z,98277.06
2023-03-28T20:11:11.609Z,98309.94
2023-03-28T20:13:40.310Z,98311.69
2023-03-28T20:16:10.440Z,98307.22
2023-03-28T20:18:40.476Z,98307.75
2023-03-28T20:21:11.448Z,98296.41
2023-03-28T20:23:40.200Z,98295.38
2023-03-28T20:26:18.307Z,98318.84
2023-03-28T20:28:50.108Z,98337.75
2023-03-28T20:31:19.551Z,98292.53
2023-03-28T20:33:49.171Z,98328.97
2023-03-28T20:36:17.418Z,98302.09
2023-03-28T20:38:45.624Z,98313.38
2023-03-28T20:41:14.814Z,98315.91
2023-03-28T20:43:47.884Z,98317.72
2023-03-28T20:46:19.260Z,98176.97
2023-03-28T20:48:53.379Z,98283.16
2023-03-28T20:51:23.299Z,98219.06
2023-03-28T20:53:54.455Z,98293.91
2023-03-28T20:56:23.600Z,98334.06
2023-03-28T20:58:53.320Z,98322.00
2023-03-28T21:01:25.461Z,98320.38
2023-03-28T21:03:58.878Z,98300.44
2023-03-28T21:06:29.517Z,98329.97
2023-03-28T21:09:00.658Z,98278.72
2023-03-28T21:11:31.710Z,98318.72
2023-03-28T21:14:01.294Z,98315.28
2023-03-28T21:16:30.797Z,98314.44
2023-03-28T21:19:01.756Z,98309.25
2023-03-28T21:21:33.245Z,98306.56
2023-03-28T21:24:01.920Z,98313.53
2023-03-28T21:26:30.336Z,98282.34
2023-03-28T21:28:58.833Z,98303.22
2023-03-28T21:31:29.455Z,98297.16
2023-03-28T21:33:59.013Z,98289.38
2023-03-28T21:36:28.965Z,98267.59
2023-03-28T21:38:57.547Z,98281.34
2023-03-28T21:41:27.388Z,98296.84
2023-03-28T21:43:56.820Z,98228.03
2023-03-28T21:46:25.288Z,98299.19
2023-03-28T21:48:54.129Z,98302.53
2023-03-28T21:51:22.305Z,98295.63
2023-03-28T21:53:52.372Z,98274.78
2023-03-28T21:56:20.576Z,98262.72
2023-03-28T21:58:48.714Z,98288.75
2023-03-28T22:01:18.748Z,98281.78
2023-03-28T22:03:48.319Z,98259.09
2023-03-28T22:06:18.230Z,98282.44
2023-03-28T22:08:51.899Z,98287.47
2023-03-28T22:11:27.776Z,98289.94
2023-03-28T22:14:01.551Z,98295.00
2023-03-28T22:16:34.970Z,98235.09
2023-03-28T22:19:03.226Z,98298.47
2023-03-28T22:21:31.724Z,98295.03
2023-03-28T22:24:02.682Z,98274.19
2023-03-28T22:26:32.337Z,98291.59
2023-03-28T22:29:00.723Z,98305.41
2023-03-28T22:31:29.585Z,98268.94
2023-03-28T22:33:57.864Z,98295.91
2023-03-28T22:36:26.110Z,98292.44
2023-03-28T22:38:54.913Z,98271.56
2023-03-28T22:41:23.876Z,98287.25
2023-03-28T22:43:53.476Z,98295.91
2023-03-28T22:46:22.290Z,98245.47
2023-03-28T22:48:54.555Z,98320.00
2023-03-28T22:51:25.251Z,98296.81
2023-03-28T22:53:53.733Z,98293.38
2023-03-28T22:56:23.467Z,98289.00
2023-03-28T22:58:53.722Z,98168.34
2023-03-28T23:01:26.160Z,98290.84
2023-03-28T23:03:54.400Z,98276.19
2023-03-28T23:06:22.496Z,98259.50
2023-03-28T23:08:50.680Z,98287.06
2023-03-28T23:11:18.878Z,98247.13
2023-03-28T23:13:47.177Z,98280.16
2023-03-28T23:16:15.423Z,98284.53
2023-03-28T23:18:45.084Z,98286.25
2023-03-28T23:21:13.243Z,98285.47
2023-03-28T23:23:42.455Z,98281.97
2023-03-28T23:26:10.934Z,98286.19
2023-03-28T23:28:39.052Z,98252.22
2023-03-28T23:31:07.768Z,98281.63
2023-03-28T23:33:36.031Z,98282.44
2023-03-28T23:36:06.526Z,98276.41
2023-03-28T23:38:35.466Z,98274.84
2023-03-28T23:41:03.773Z,98280.97
2023-03-28T23:43:34.074Z,98278.28
2023-03-28T23:46:04.458Z,98282.53
2023-03-28T23:48:32.898Z,98285.88
2023-03-28T23:51:02.227Z,98286.56
2023-03-28T23:53:31.915Z,98281.34
2023-03-28T23:56:00.170Z,98280.63
2023-03-28T23:58:28.303Z,98234.66
